createdAt,value
2017-04-23T00:00:13.776Z,7.21
2017-04-23T00:00:54.312Z,7.16
2017-04-23T00:01:34.848Z,7.13
2017-04-23T00:02:15.391Z,7.07
2017-04-23T00:02:55.923Z,7.13
2017-04-23T00:03:36.454Z,7.06
2017-04-23T00:04:16.984Z,7.13
2017-04-23T00:04:57.516Z,7.05
2017-04-23T00:05:38.053Z,7.06
2017-04-23T00:06:18.578Z,7.09
2017-04-23T00:06:59.113Z,7.06
2017-04-23T00:07:39.655Z,6.98
2017-04-23T00:08:20.190Z,6.99
2017-04-23T00:09:00.718Z,6.99
2017-04-23T00:09:41.256Z,6.97
2017-04-23T00:10:21.787Z,6.94
2017-04-23T00:11:02.311Z,6.91
2017-04-23T00:11:42.862Z,6.95
2017-04-23T00:12:23.379Z,6.94
2017-04-23T00:13:03.912Z,6.94
2017-04-23T00:13:44.441Z,6.97
2017-04-23T00:14:25.000Z,7.02
2017-04-23T00:15:05.532Z,6.91
2017-04-23T00:15:46.112Z,6.92
2017-04-23T00:16:26.630Z,6.95
2017-04-23T00:17:07.158Z,6.95
2017-04-23T00:17:47.681Z,6.98
2017-04-23T00:18:28.209Z,6.95
2017-04-23T00:19:08.734Z,6.94
2017-04-23T00:19:49.261Z,6.97
2017-04-23T00:20:29.796Z,6.92
2017-04-23T00:21:10.328Z,6.84
2017-04-23T00:21:50.865Z,6.87
2017-04-23T00:22:31.398Z,6.88
2017-04-23T00:23:11.941Z,6.85
2017-04-23T00:23:52.473Z,6.88
2017-04-23T00:24:33.007Z,6.88
2017-04-23T00:25:13.550Z,6.8
2017-04-23T00:25:54.069Z,6.76
2017-04-23T00:26:34.605Z,6.85
2017-04-23T00:27:15.133Z,6.77
2017-04-23T00:27:55.676Z,6.79
2017-04-23T00:28:36.192Z,6.69
2017-04-23T00:29:16.719Z,6.71
2017-04-23T00:29:57.246Z,6.74
2017-04-23T00:30:37.767Z,6.73
2017-04-23T00:31:18.295Z,6.74
2017-04-23T00:31:58.833Z,6.71
2017-04-23T00:32:39.368Z,6.7
2017-04-23T00:33:19.892Z,6.69
2017-04-23T00:34:00.423Z,6.61
2017-04-23T00:34:40.964Z,6.56
2017-04-23T00:35:21.495Z,6.59
2017-04-23T00:36:02.029Z,6.58
2017-04-23T00:36:42.570Z,6.54
2017-04-23T00:37:23.095Z,6.59
2017-04-23T00:38:03.634Z,6.51
2017-04-23T00:38:44.179Z,6.55
2017-04-23T00:39:24.714Z,6.55
2017-04-23T00:40:05.245Z,6.54
2017-04-23T00:40:45.780Z,6.46
2017-04-23T00:41:26.318Z,6.48
2017-04-23T00:42:06.848Z,6.43
2017-04-23T00:42:47.378Z,6.43
2017-04-23T00:43:27.905Z,6.38
2017-04-23T00:44:08.488Z,6.38
2017-04-23T00:44:49.019Z,6.38
2017-04-23T00:45:29.539Z,6.36
2017-04-23T00:46:10.077Z,6.36
2017-04-23T00:46:50.631Z,6.41
2017-04-23T00:47:31.161Z,6.38
2017-04-23T00:48:11.688Z,6.41
2017-04-23T00:48:52.241Z,6.4
2017-04-23T00:49:32.778Z,6.4
2017-04-23T00:50:13.307Z,6.4
2017-04-23T00:50:53.847Z,6.4
2017-04-23T00:51:34.377Z,6.36
2017-04-23T00:52:14.911Z,6.44
2017-04-23T00:52:55.431Z,6.41
2017-04-23T00:53:35.964Z,6.43
2017-04-23T00:54:16.487Z,6.38
2017-04-23T00:54:57.008Z,6.41
2017-04-23T00:55:37.569Z,6.46
2017-04-23T00:56:18.081Z,6.36
2017-04-23T00:56:58.612Z,6.38
2017-04-23T00:57:39.158Z,6.37
2017-04-23T00:58:19.691Z,6.4
2017-04-23T00:59:00.226Z,6.4
2017-04-23T00:59:40.734Z,6.41
2017-04-23T01:00:21.266Z,6.36
2017-04-23T01:01:01.791Z,6.4
2017-04-23T01:01:42.312Z,6.44
2017-04-23T01:02:22.840Z,6.46
2017-04-23T01:03:03.362Z,6.43
2017-04-23T01:03:43.893Z,6.4
2017-04-23T01:04:24.417Z,6.34
2017-04-23T01:05:04.940Z,6.4
2017-04-23T01:05:45.467Z,6.38
2017-04-23T01:06:26.012Z,6.38
2017-04-23T01:07:06.533Z,6.46
2017-04-23T01:07:47.037Z,6.49
2017-04-23T01:08:27.581Z,6.54
2017-04-23T01:09:08.109Z,6.43
2017-04-23T01:09:48.642Z,6.54
2017-04-23T01:10:29.180Z,6.44
2017-04-23T01:11:09.715Z,6.49
2017-04-23T01:11:50.239Z,6.51
2017-04-23T01:12:30.766Z,6.54
2017-04-23T01:13:11.296Z,6.44
2017-04-23T01:13:51.819Z,6.4
2017-04-23T01:14:32.356Z,6.38
2017-04-23T01:15:12.897Z,6.49
2017-04-23T01:15:53.432Z,6.43
2017-04-23T01:16:33.963Z,6.48
2017-04-23T01:17:14.494Z,6.51
2017-04-23T01:17:55.021Z,6.49
2017-04-23T01:18:35.554Z,6.43
2017-04-23T01:19:16.109Z,6.43
2017-04-23T01:19:56.602Z,6.43
2017-04-23T01:20:37.141Z,6.44
2017-04-23T01:21:17.661Z,6.52
2017-04-23T01:21:58.208Z,6.48
2017-04-23T01:22:38.728Z,6.55
2017-04-23T01:23:19.256Z,6.49
2017-04-23T01:23:59.780Z,6.54
2017-04-23T01:24:40.304Z,6.54
2017-04-23T01:25:20.855Z,6.44
2017-04-23T01:26:01.382Z,6.44
2017-04-23T01:26:41.907Z,6.46
2017-04-23T01:27:22.429Z,6.43
2017-04-23T01:28:02.952Z,6.49
2017-04-23T01:28:43.511Z,6.43
2017-04-23T01:29:24.056Z,6.38
2017-04-23T01:30:04.575Z,6.41
2017-04-23T01:30:45.108Z,6.34
2017-04-23T01:31:25.642Z,6.41
2017-04-23T01:32:06.182Z,6.4
2017-04-23T01:32:46.711Z,6.37
2017-04-23T01:33:27.232Z,6.34
2017-04-23T01:34:07.766Z,6.4
2017-04-23T01:34:48.304Z,6.43
2017-04-23T01:35:28.836Z,6.37
2017-04-23T01:36:09.358Z,6.43
2017-04-23T01:36:49.885Z,6.4
2017-04-23T01:37:30.423Z,6.44
2017-04-23T01:38:10.960Z,6.4
2017-04-23T01:38:51.491Z,6.37
2017-04-23T01:39:32.024Z,6.4
2017-04-23T01:40:12.568Z,6.38
2017-04-23T01:40:53.098Z,6.37
2017-04-23T01:41:33.650Z,6.34
2017-04-23T01:42:14.180Z,6.3
2017-04-23T01:42:54.721Z,6.36
2017-04-23T01:43:35.263Z,6.33
2017-04-23T01:44:15.840Z,6.3
2017-04-23T01:44:56.372Z,6.34
2017-04-23T01:45:36.894Z,6.34
2017-04-23T01:46:17.434Z,6.36
2017-04-23T01:46:57.980Z,6.34
2017-04-23T01:47:38.518Z,6.34
2017-04-23T01:48:19.054Z,6.37
2017-04-23T01:48:59.582Z,6.36
2017-04-23T01:49:40.117Z,6.36
2017-04-23T01:50:20.644Z,6.41
2017-04-23T01:51:01.173Z,6.43
2017-04-23T01:51:41.718Z,6.38
2017-04-23T01:52:22.250Z,6.31
2017-04-23T01:53:02.788Z,6.34
2017-04-23T01:53:43.322Z,6.34
2017-04-23T01:54:23.847Z,6.38
2017-04-23T01:55:04.371Z,6.38
2017-04-23T01:55:44.904Z,6.41
2017-04-23T01:56:25.454Z,6.38
2017-04-23T01:57:05.968Z,6.31
2017-04-23T01:57:46.512Z,6.38
2017-04-23T01:58:27.060Z,6.4
2017-04-23T01:59:07.579Z,6.4
2017-04-23T01:59:48.140Z,6.31
2017-04-23T02:00:28.647Z,6.28
2017-04-23T02:01:09.172Z,6.33
2017-04-23T02:01:49.703Z,6.28
2017-04-23T02:02:30.222Z,6.3
2017-04-23T02:03:10.744Z,6.27
2017-04-23T02:03:51.281Z,6.27
2017-04-23T02:04:31.813Z,6.25
2017-04-23T02:05:12.338Z,6.28
2017-04-23T02:05:52.871Z,6.21
2017-04-23T02:06:33.419Z,6.22
2017-04-23T02:07:13.943Z,6.3
2017-04-23T02:07:54.476Z,6.31
2017-04-23T02:08:35.017Z,6.3
2017-04-23T02:09:15.536Z,6.3
2017-04-23T02:09:56.084Z,6.22
2017-04-23T02:10:36.610Z,6.28
2017-04-23T02:11:17.149Z,6.28
2017-04-23T02:11:57.689Z,6.28
2017-04-23T02:12:38.219Z,6.21
2017-04-23T02:13:18.747Z,6.27
2017-04-23T02:13:59.260Z,6.28
2017-04-23T02:14:39.789Z,6.28
2017-04-23T02:15:20.325Z,6.25
2017-04-23T02:16:00.858Z,6.21
2017-04-23T02:16:41.387Z,6.28
2017-04-23T02:17:21.938Z,6.22
2017-04-23T02:18:02.468Z,6.25
2017-04-23T02:18:42.992Z,6.22
2017-04-23T02:19:23.518Z,6.3
2017-04-23T02:20:04.041Z,6.31
2017-04-23T02:20:44.565Z,6.28
2017-04-23T02:21:25.126Z,6.21
2017-04-23T02:22:05.645Z,6.22
2017-04-23T02:22:46.182Z,6.25
2017-04-23T02:23:26.726Z,6.22
2017-04-23T02:24:07.261Z,6.28
2017-04-23T02:24:47.794Z,6.25
2017-04-23T02:25:28.323Z,6.3
2017-04-23T02:26:08.844Z,6.34
2017-04-23T02:26:49.373Z,6.22
2017-04-23T02:27:29.907Z,6.33
2017-04-23T02:28:10.443Z,6.3
2017-04-23T02:28:50.967Z,6.28
2017-04-23T02:29:31.517Z,6.25
2017-04-23T02:30:12.046Z,6.31
2017-04-23T02:30:52.591Z,6.25
2017-04-23T02:31:33.122Z,6.28
2017-04-23T02:32:13.641Z,6.3
2017-04-23T02:32:54.177Z,6.18
2017-04-23T02:33:34.720Z,6.21
2017-04-23T02:34:15.262Z,6.19
2017-04-23T02:34:55.803Z,6.25
2017-04-23T02:35:36.349Z,6.25
2017-04-23T02:36:16.881Z,6.22
2017-04-23T02:36:57.437Z,6.15
2017-04-23T02:37:37.968Z,6.19
2017-04-23T02:38:18.489Z,6.19
2017-04-23T02:38:59.025Z,6.27
2017-04-23T02:39:39.583Z,6.09
2017-04-23T02:40:20.110Z,6.18
2017-04-23T02:41:00.648Z,6.12
2017-04-23T02:41:41.176Z,6.25
2017-04-23T02:42:21.706Z,6.18
2017-04-23T02:43:02.232Z,6.19
2017-04-23T02:43:42.767Z,6.22
2017-04-23T02:44:23.315Z,6.15
2017-04-23T02:45:03.855Z,6.14
2017-04-23T02:45:44.393Z,6.17
2017-04-23T02:46:24.926Z,6.11
2017-04-23T02:47:05.456Z,6.14
2017-04-23T02:47:45.984Z,6.14
2017-04-23T02:48:26.515Z,6.09
2017-04-23T02:49:07.036Z,6.09
2017-04-23T02:49:47.630Z,5.99
2017-04-23T02:50:28.198Z,5.99
2017-04-23T02:51:08.752Z,6.04
2017-04-23T02:51:49.269Z,6.01
2017-04-23T02:52:29.813Z,6.03
2017-04-23T02:53:10.348Z,6.03
2017-04-23T02:53:50.869Z,6.01
2017-04-23T02:54:31.403Z,5.94
2017-04-23T02:55:11.931Z,5.94
2017-04-23T02:55:52.465Z,5.99
2017-04-23T02:56:32.989Z,5.9
2017-04-23T02:57:13.515Z,5.91
2017-04-23T02:57:54.045Z,5.85
2017-04-23T02:58:34.587Z,5.85
2017-04-23T02:59:15.125Z,5.83
2017-04-23T02:59:55.658Z,5.83
2017-04-23T03:00:36.244Z,5.79
2017-04-23T03:01:16.787Z,5.78
2017-04-23T03:01:57.327Z,5.82
2017-04-23T03:02:37.857Z,5.75
2017-04-23T03:03:18.387Z,5.72
2017-04-23T03:03:58.916Z,5.65
2017-04-23T03:04:39.449Z,5.68
2017-04-23T03:05:19.992Z,5.67
2017-04-23T03:06:00.522Z,5.63
2017-04-23T03:06:41.051Z,5.72
2017-04-23T03:07:21.585Z,5.63
2017-04-23T03:08:02.125Z,5.68
2017-04-23T03:08:42.676Z,5.64
2017-04-23T03:09:23.204Z,5.64
2017-04-23T03:10:03.774Z,5.6
2017-04-23T03:10:44.264Z,5.65
2017-04-23T03:11:24.805Z,5.67
2017-04-23T03:12:05.342Z,5.56
2017-04-23T03:12:45.854Z,5.45
2017-04-23T03:13:26.396Z,5.56
2017-04-23T03:14:06.923Z,5.53
2017-04-23T03:14:47.460Z,5.53
2017-04-23T03:15:28.004Z,5.43
2017-04-23T03:16:08.535Z,5.42
2017-04-23T03:16:49.052Z,5.4
2017-04-23T03:17:29.591Z,5.33
2017-04-23T03:18:10.127Z,5.38
2017-04-23T03:18:50.679Z,5.35
2017-04-23T03:19:31.208Z,5.24
2017-04-23T03:20:11.737Z,5.27
2017-04-23T03:20:52.285Z,5.18
2017-04-23T03:21:32.811Z,5.22
2017-04-23T03:22:13.353Z,5.2
2017-04-23T03:22:53.884Z,5.17
2017-04-23T03:23:34.409Z,5.07
2017-04-23T03:24:14.941Z,5.07
2017-04-23T03:24:55.467Z,5.04
2017-04-23T03:25:35.995Z,5.02
2017-04-23T03:26:16.534Z,4.99
2017-04-23T03:26:57.081Z,4.99
2017-04-23T03:27:37.615Z,4.94
2017-04-23T03:28:18.148Z,4.86
2017-04-23T03:28:58.672Z,4.92
2017-04-23T03:29:39.198Z,4.88
2017-04-23T03:30:19.741Z,4.88
2017-04-23T03:31:00.298Z,4.86
2017-04-23T03:31:40.823Z,4.75
2017-04-23T03:32:21.339Z,4.78
2017-04-23T03:33:01.890Z,4.75
2017-04-23T03:33:42.413Z,4.65
2017-04-23T03:34:22.951Z,4.69
2017-04-23T03:35:03.482Z,4.67
2017-04-23T03:35:44.017Z,4.67
2017-04-23T03:36:24.545Z,4.67
2017-04-23T03:37:05.091Z,4.63
2017-04-23T03:37:45.637Z,4.66
2017-04-23T03:38:26.175Z,4.62
2017-04-23T03:39:06.719Z,4.62
2017-04-23T03:39:47.265Z,4.62
2017-04-23T03:40:27.814Z,4.63
2017-04-23T03:41:08.346Z,4.51
2017-04-23T03:41:48.880Z,4.63
2017-04-23T03:42:29.402Z,4.65
2017-04-23T03:43:09.954Z,4.63
2017-04-23T03:43:50.483Z,4.66
2017-04-23T03:44:31.011Z,4.63
2017-04-23T03:45:11.548Z,4.66
2017-04-23T03:45:52.080Z,4.67
2017-04-23T03:46:32.606Z,4.67
2017-04-23T03:47:13.142Z,4.67
2017-04-23T03:47:53.658Z,4.69
2017-04-23T03:48:34.190Z,4.69
2017-04-23T03:49:14.719Z,4.62
2017-04-23T03:49:55.255Z,4.65
2017-04-23T03:50:35.780Z,4.66
2017-04-23T03:51:16.312Z,4.69
2017-04-23T03:51:56.842Z,4.69
2017-04-23T03:52:37.392Z,4.65
2017-04-23T03:53:17.939Z,4.63
2017-04-23T03:53:58.451Z,4.67
2017-04-23T03:54:39.012Z,4.6
2017-04-23T03:55:19.589Z,4.63
2017-04-23T03:56:00.169Z,4.51
2017-04-23T03:56:40.746Z,4.54
2017-04-23T03:57:21.302Z,4.54
2017-04-23T03:58:01.873Z,4.5
2017-04-23T03:58:42.453Z,4.51
2017-04-23T03:59:23.025Z,4.59
2017-04-23T04:00:03.585Z,4.51
2017-04-23T04:00:44.171Z,4.5
2017-04-23T04:01:24.674Z,4.44
2017-04-23T04:02:05.338Z,4.47
2017-04-23T04:02:45.881Z,4.44
2017-04-23T04:03:26.477Z,4.5
2017-04-23T04:04:07.025Z,4.48
2017-04-23T04:04:47.551Z,4.41
2017-04-23T04:05:28.088Z,4.4
2017-04-23T04:06:08.805Z,4.44
2017-04-23T04:06:49.411Z,4.42
2017-04-23T04:07:29.903Z,4.42
2017-04-23T04:08:10.476Z,4.41
2017-04-23T04:08:51.013Z,4.4
2017-04-23T04:09:31.575Z,4.34
2017-04-23T04:10:12.142Z,4.34
2017-04-23T04:10:52.668Z,4.33
2017-04-23T04:11:33.234Z,4.36
2017-04-23T04:12:13.765Z,4.24
2017-04-23T04:12:54.298Z,4.16
2017-04-23T04:13:34.875Z,4.2
2017-04-23T04:14:15.398Z,4.2
2017-04-23T04:14:55.989Z,4.16
2017-04-23T04:15:36.533Z,4.32
2017-04-23T04:16:17.029Z,4.16
2017-04-23T04:16:57.539Z,4.29
2017-04-23T04:17:38.100Z,4.15
2017-04-23T04:18:18.723Z,4.2
2017-04-23T04:18:59.222Z,4.23
2017-04-23T04:19:39.825Z,4.14
2017-04-23T04:20:20.316Z,4.24
2017-04-23T04:21:00.881Z,4.24
2017-04-23T04:21:41.405Z,4.3
2017-04-23T04:22:21.986Z,4.2
2017-04-23T04:23:02.551Z,4.26
2017-04-23T04:23:44.058Z,4.26
2017-04-23T04:24:24.654Z,4.26
2017-04-23T04:25:05.189Z,4.27
2017-04-23T04:25:45.733Z,4.29
2017-04-23T04:26:26.350Z,4.18
2017-04-23T04:27:06.957Z,4.26
2017-04-23T04:27:47.576Z,4.27
2017-04-23T04:28:28.134Z,4.26
2017-04-23T04:29:08.706Z,4.27
2017-04-23T04:29:49.210Z,4.32
2017-04-23T04:30:29.747Z,4.33
2017-04-23T04:31:10.294Z,4.2
2017-04-23T04:31:50.810Z,4.24
2017-04-23T04:32:31.346Z,4.3
2017-04-23T04:33:11.910Z,4.3
2017-04-23T04:33:52.462Z,4.34
2017-04-23T04:34:33.028Z,4.32
2017-04-23T04:35:13.595Z,4.36
2017-04-23T04:35:54.306Z,4.36
2017-04-23T04:36:34.961Z,4.34
2017-04-23T04:37:15.526Z,4.44
2017-04-23T04:37:56.369Z,4.42
2017-04-23T04:38:36.917Z,4.4
2017-04-23T04:39:17.529Z,4.42
2017-04-23T04:39:58.052Z,4.52
2017-04-23T04:40:38.587Z,4.47
2017-04-23T04:41:19.170Z,4.45
2017-04-23T04:41:59.681Z,4.47
2017-04-23T04:42:40.239Z,4.62
2017-04-23T04:43:20.790Z,4.65
2017-04-23T04:44:01.340Z,4.69
2017-04-23T04:44:41.960Z,4.66
2017-04-23T04:45:22.443Z,4.58
2017-04-23T04:46:02.998Z,4.66
2017-04-23T04:46:43.646Z,4.63
2017-04-23T04:47:24.233Z,4.72
2017-04-23T04:48:04.875Z,4.69
2017-04-23T04:48:45.406Z,4.73
2017-04-23T04:49:25.967Z,4.73
2017-04-23T04:50:06.511Z,4.73
2017-04-23T04:50:47.108Z,4.84
2017-04-23T04:51:27.665Z,4.73
2017-04-23T04:52:08.241Z,4.78
2017-04-23T04:52:48.862Z,4.82
2017-04-23T04:53:29.412Z,4.86
2017-04-23T04:54:10.002Z,4.91
2017-04-23T04:54:50.513Z,4.91
2017-04-23T04:55:31.072Z,4.96
2017-04-23T04:56:11.635Z,4.92
2017-04-23T04:56:52.178Z,4.94
2017-04-23T04:57:32.804Z,4.92
2017-04-23T04:58:13.411Z,4.89
2017-04-23T04:58:53.961Z,4.99
2017-04-23T04:59:34.547Z,5
2017-04-23T05:00:15.081Z,5.1
2017-04-23T05:00:55.678Z,5.04
2017-04-23T05:01:36.248Z,5.06
2017-04-23T05:02:16.806Z,5.07
2017-04-23T05:02:57.365Z,5.1
2017-04-23T05:03:38.182Z,5.12
2017-04-23T05:04:18.769Z,5.15
2017-04-23T05:04:59.337Z,5.18
2017-04-23T05:05:39.878Z,5.13
2017-04-23T05:06:20.482Z,5.12
2017-04-23T05:07:01.050Z,5.07
2017-04-23T05:07:41.623Z,5.12
2017-04-23T05:08:22.153Z,5.21
2017-04-23T05:09:02.717Z,5.24
2017-04-23T05:09:43.266Z,5.22
2017-04-23T05:10:23.841Z,5.25
2017-04-23T05:11:04.435Z,5.28
2017-04-23T05:11:45.009Z,5.28
2017-04-23T05:12:25.585Z,5.27
2017-04-23T05:13:06.169Z,5.28
2017-04-23T05:13:46.720Z,5.35
2017-04-23T05:14:27.263Z,5.3
2017-04-23T05:15:07.831Z,5.36
2017-04-23T05:15:48.358Z,5.35
2017-04-23T05:16:28.936Z,5.42
2017-04-23T05:17:09.507Z,5.39
2017-04-23T05:17:50.087Z,5.35
2017-04-23T05:18:30.639Z,5.45
2017-04-23T05:19:11.204Z,5.46
2017-04-23T05:19:51.767Z,5.42
2017-04-23T05:20:32.358Z,5.46
2017-04-23T05:21:12.956Z,5.49
2017-04-23T05:21:53.518Z,5.46
2017-04-23T05:22:34.084Z,5.53
2017-04-23T05:23:14.655Z,5.45
2017-04-23T05:23:55.172Z,5.54
2017-04-23T05:24:35.759Z,5.45
2017-04-23T05:25:16.353Z,5.54
2017-04-23T05:25:56.913Z,5.53
2017-04-23T05:26:37.463Z,5.51
2017-04-23T05:27:18.039Z,5.58
2017-04-23T05:27:58.621Z,5.64
2017-04-23T05:28:39.181Z,5.58
2017-04-23T05:29:19.741Z,5.54
2017-04-23T05:30:00.373Z,5.71
2017-04-23T05:30:40.925Z,5.74
2017-04-23T05:31:21.451Z,5.61
2017-04-23T05:32:02.051Z,5.65
2017-04-23T05:32:42.640Z,5.75
2017-04-23T05:33:23.194Z,5.67
2017-04-23T05:34:03.780Z,5.63
2017-04-23T05:34:44.279Z,5.71
2017-04-23T05:35:24.826Z,5.71
2017-04-23T05:36:05.372Z,5.67
2017-04-23T05:36:45.934Z,5.65
2017-04-23T05:37:26.446Z,5.67
2017-04-23T05:38:07.001Z,5.64
2017-04-23T05:38:47.588Z,5.71
2017-04-23T05:39:28.175Z,5.67
2017-04-23T05:40:08.737Z,5.75
2017-04-23T05:40:49.263Z,5.67
2017-04-23T05:41:29.806Z,5.71
2017-04-23T05:42:10.385Z,5.72
2017-04-23T05:42:50.959Z,5.76
2017-04-23T05:43:31.465Z,5.75
2017-04-23T05:44:12.066Z,5.67
2017-04-23T05:44:52.550Z,5.75
2017-04-23T05:46:41.658Z,5.75
2017-04-23T05:47:22.178Z,5.76
2017-04-23T05:48:02.707Z,5.78
2017-04-23T05:48:43.301Z,5.89
2017-04-23T05:49:23.828Z,5.85
2017-04-23T05:50:04.374Z,5.79
2017-04-23T05:50:44.893Z,5.82
2017-04-23T05:51:25.696Z,5.81
2017-04-23T05:52:07.497Z,5.91
2017-04-23T05:52:49.079Z,5.82
2017-04-23T05:53:29.654Z,5.82
2017-04-23T05:54:10.214Z,5.82
2017-04-23T05:54:50.786Z,5.79
2017-04-23T05:55:31.410Z,5.74
2017-04-23T05:56:12.037Z,5.71
2017-04-23T05:56:52.631Z,5.74
2017-04-23T05:57:33.183Z,5.67
2017-04-23T05:58:13.769Z,5.68
2017-04-23T05:58:54.368Z,5.75
2017-04-23T05:59:34.944Z,5.72
2017-04-23T06:00:15.531Z,5.75
2017-04-23T06:00:56.125Z,5.75
2017-04-23T06:01:36.717Z,5.71
2017-04-23T06:02:17.261Z,5.76
2017-04-23T06:02:57.845Z,5.72
2017-04-23T06:03:38.483Z,5.72
2017-04-23T06:04:19.042Z,5.79
2017-04-23T06:04:59.628Z,5.78
2017-04-23T06:05:40.225Z,5.79
2017-04-23T06:06:20.788Z,5.72
2017-04-23T06:07:01.354Z,5.81
2017-04-23T06:07:41.920Z,5.79
2017-04-23T06:08:22.490Z,5.83
2017-04-23T06:09:03.024Z,5.82
2017-04-23T06:09:43.570Z,5.76
2017-04-23T06:10:24.111Z,5.72
2017-04-23T06:11:04.662Z,5.76
2017-04-23T06:11:45.231Z,5.76
2017-04-23T06:12:25.799Z,5.81
2017-04-23T06:13:06.359Z,5.78
2017-04-23T06:13:46.964Z,5.78
2017-04-23T06:14:27.491Z,5.75
2017-04-23T06:15:08.084Z,5.74
2017-04-23T06:15:48.658Z,5.82
2017-04-23T06:16:29.221Z,5.82
2017-04-23T06:17:09.796Z,5.86
2017-04-23T06:17:50.380Z,5.81
2017-04-23T06:18:30.968Z,5.9
2017-04-23T06:19:11.573Z,5.91
2017-04-23T06:19:52.215Z,5.99
2017-04-23T06:20:32.798Z,6.03
2017-04-23T06:21:13.403Z,6
2017-04-23T06:21:53.959Z,6.12
2017-04-23T06:22:34.567Z,6.11
2017-04-23T06:23:15.137Z,6.19
2017-04-23T06:23:55.704Z,6.14
2017-04-23T06:24:36.260Z,6.25
2017-04-23T06:25:16.817Z,6.19
2017-04-23T06:25:57.381Z,6.18
2017-04-23T06:26:37.945Z,6.21
2017-04-23T06:27:18.568Z,6.28
2017-04-23T06:27:59.110Z,6.25
2017-04-23T06:28:39.694Z,6.36
2017-04-23T06:29:20.237Z,6.3
2017-04-23T06:30:00.787Z,6.27
2017-04-23T06:30:41.366Z,6.33
2017-04-23T06:31:21.915Z,6.41
2017-04-23T06:32:02.705Z,6.41
2017-04-23T06:32:43.557Z,6.41
2017-04-23T06:33:24.103Z,6.48
2017-04-23T06:34:04.762Z,6.54
2017-04-23T06:34:45.268Z,6.52
2017-04-23T06:35:25.784Z,6.55
2017-04-23T06:36:06.380Z,6.51
2017-04-23T06:36:46.969Z,6.54
2017-04-23T06:37:27.549Z,6.55
2017-04-23T06:38:08.098Z,6.48
2017-04-23T06:38:48.706Z,6.36
2017-04-23T06:39:29.756Z,6.37
2017-04-23T06:40:10.312Z,6.44
2017-04-23T06:40:50.855Z,6.44
2017-04-23T06:41:31.426Z,6.43
2017-04-23T06:42:11.990Z,6.54
2017-04-23T06:42:52.537Z,6.52
2017-04-23T06:43:33.103Z,6.48
2017-04-23T06:44:13.715Z,6.55
2017-04-23T06:44:54.213Z,6.51
2017-04-23T06:45:34.774Z,6.61
2017-04-23T06:46:15.337Z,6.61
2017-04-23T06:46:55.914Z,6.56
2017-04-23T06:47:36.512Z,6.56
2017-04-23T06:48:17.163Z,6.62
2017-04-23T06:48:57.625Z,6.66
2017-04-23T06:49:38.150Z,6.62
2017-04-23T06:50:19.143Z,6.61
2017-04-23T06:50:59.842Z,6.59
2017-04-23T06:51:40.504Z,6.61
2017-04-23T06:52:21.064Z,6.58
2017-04-23T06:53:01.631Z,6.59
2017-04-23T06:53:42.223Z,6.55
2017-04-23T06:54:22.775Z,6.49
2017-04-23T06:55:03.343Z,6.55
2017-04-23T06:55:43.883Z,6.55
2017-04-23T06:56:24.490Z,6.56
2017-04-23T06:57:04.997Z,6.46
2017-04-23T06:57:45.507Z,6.46
2017-04-23T06:58:26.064Z,6.51
2017-04-23T06:59:06.631Z,6.51
2017-04-23T06:59:47.149Z,6.46
2017-04-23T07:00:27.750Z,6.52
2017-04-23T07:01:08.264Z,6.59
2017-04-23T07:01:48.791Z,6.62
2017-04-23T07:02:29.332Z,6.59
2017-04-23T07:03:09.894Z,6.67
2017-04-23T07:03:50.462Z,6.69
2017-04-23T07:04:31.053Z,6.77
2017-04-23T07:05:11.658Z,6.79
2017-04-23T07:05:52.244Z,6.87
2017-04-23T07:06:32.841Z,6.74
2017-04-23T07:07:13.424Z,6.74
2017-04-23T07:07:54.035Z,6.89
2017-04-23T07:08:34.626Z,6.79
2017-04-23T07:09:15.193Z,6.79
2017-04-23T07:09:55.789Z,6.76
2017-04-23T07:10:36.353Z,6.89
2017-04-23T07:11:16.952Z,6.85
2017-04-23T07:11:57.451Z,6.88
2017-04-23T07:12:37.985Z,6.95
2017-04-23T07:13:18.559Z,6.94
2017-04-23T07:13:59.088Z,7.09
2017-04-23T07:14:39.626Z,7.1
2017-04-23T07:15:20.218Z,7.12
2017-04-23T07:16:00.816Z,7.12
2017-04-23T07:16:41.874Z,7.16
2017-04-23T07:17:22.501Z,7.07
2017-04-23T07:18:03.086Z,7.13
2017-04-23T07:18:43.702Z,7.23
2017-04-23T07:19:24.243Z,7.17
2017-04-23T07:20:04.998Z,7.16
2017-04-23T07:20:45.549Z,7.17
2017-04-23T07:21:26.193Z,7.23
2017-04-23T07:22:06.828Z,7.15
2017-04-23T07:22:47.421Z,7.16
2017-04-23T07:23:28.115Z,7.2
2017-04-23T07:24:08.671Z,7.23
2017-04-23T07:24:49.254Z,7.17
2017-04-23T07:25:29.819Z,7.15
2017-04-23T07:26:10.371Z,7.27
2017-04-23T07:26:50.987Z,7.3
2017-04-23T07:27:31.551Z,7.43
2017-04-23T07:28:12.297Z,7.5
2017-04-23T07:28:52.940Z,7.68
2017-04-23T07:29:33.525Z,7.74
2017-04-23T07:30:14.251Z,7.85
2017-04-23T07:30:54.840Z,7.9
2017-04-23T07:31:35.408Z,8.02
2017-04-23T07:32:16.015Z,7.93
2017-04-23T07:32:56.634Z,8.01
2017-04-23T07:33:37.402Z,8.08
2017-04-23T07:34:17.966Z,8.1
2017-04-23T07:34:58.621Z,8.1
2017-04-23T07:35:39.231Z,7.98
2017-04-23T07:36:19.782Z,7.95
2017-04-23T07:37:00.390Z,7.8
2017-04-23T07:37:40.943Z,7.75
2017-04-23T07:38:21.533Z,7.77
2017-04-23T07:39:02.083Z,7.77
2017-04-23T07:39:42.796Z,7.83
2017-04-23T07:40:23.436Z,7.89
2017-04-23T07:41:04.134Z,7.97
2017-04-23T07:41:44.680Z,8
2017-04-23T07:42:25.326Z,8
2017-04-23T07:43:05.914Z,8.1
2017-04-23T07:43:46.519Z,8.08
2017-04-23T07:44:27.272Z,8.18
2017-04-23T07:45:07.886Z,8.12
2017-04-23T07:45:48.774Z,8.05
2017-04-23T07:46:29.433Z,8.08
2017-04-23T07:47:10.200Z,8.16
2017-04-23T07:47:50.832Z,8.05
2017-04-23T07:48:31.419Z,8.15
2017-04-23T07:49:12.015Z,8.2
2017-04-23T07:49:52.517Z,8.26
2017-04-23T07:50:33.118Z,8.25
2017-04-23T07:51:13.637Z,8.34
2017-04-23T07:51:54.193Z,8.4
2017-04-23T07:52:34.764Z,8.38
2017-04-23T07:53:15.373Z,8.52
2017-04-23T07:53:55.976Z,8.56
2017-04-23T07:54:36.569Z,8.63
2017-04-23T07:55:17.213Z,8.71
2017-04-23T07:55:57.740Z,8.7
2017-04-23T07:56:38.380Z,8.73
2017-04-23T07:57:18.972Z,8.77
2017-04-23T07:57:59.506Z,8.87
2017-04-23T07:58:40.045Z,8.89
2017-04-23T07:59:20.649Z,8.86
2017-04-23T08:00:01.200Z,8.76
2017-04-23T08:00:41.761Z,8.76
2017-04-23T08:01:22.338Z,8.86
2017-04-23T08:02:02.927Z,8.74
2017-04-23T08:02:43.511Z,8.79
2017-04-23T08:03:24.082Z,8.77
2017-04-23T08:04:04.667Z,8.76
2017-04-23T08:04:45.281Z,8.68
2017-04-23T08:05:25.903Z,8.79
2017-04-23T08:06:06.518Z,8.77
2017-04-23T08:06:47.497Z,8.77
2017-04-23T08:07:28.228Z,8.74
2017-04-23T08:08:08.785Z,9.01
2017-04-23T08:08:49.305Z,9.1
2017-04-23T08:09:29.891Z,9.23
2017-04-23T08:10:10.472Z,9.24
2017-04-23T08:10:51.026Z,9.28
2017-04-23T08:11:31.632Z,9.5
2017-04-23T08:12:12.207Z,9.69
2017-04-23T08:12:52.775Z,9.9
2017-04-23T08:13:33.334Z,9.93
2017-04-23T08:14:13.873Z,9.91
2017-04-23T08:14:54.448Z,9.99
2017-04-23T08:15:35.068Z,10.08
2017-04-23T08:16:15.562Z,10.08
2017-04-23T08:16:56.152Z,10.04
2017-04-23T08:17:36.686Z,9.91
2017-04-23T08:18:17.290Z,9.75
2017-04-23T08:18:57.792Z,9.53
2017-04-23T08:19:38.370Z,9.38
2017-04-23T08:20:18.941Z,9.21
2017-04-23T08:20:59.492Z,9.13
2017-04-23T08:21:40.068Z,9.01
2017-04-23T08:22:20.627Z,8.91
2017-04-23T08:23:01.179Z,8.77
2017-04-23T08:23:41.771Z,8.68
2017-04-23T08:24:22.340Z,8.58
2017-04-23T08:25:02.915Z,8.4
2017-04-23T08:25:43.498Z,8.34
2017-04-23T08:26:24.105Z,8.11
2017-04-23T08:27:04.719Z,8.08
2017-04-23T08:27:45.330Z,8.12
2017-04-23T08:28:25.956Z,8.11
2017-04-23T08:29:06.642Z,8.23
2017-04-23T08:29:47.232Z,8.34
2017-04-23T08:30:27.809Z,8.28
2017-04-23T08:31:08.371Z,8.45
2017-04-23T08:31:48.962Z,8.77
2017-04-23T08:32:29.510Z,8.81
2017-04-23T08:33:10.054Z,9.21
2017-04-23T08:33:50.597Z,9.53
2017-04-23T08:34:31.161Z,9.76
2017-04-23T08:35:11.674Z,9.76
2017-04-23T08:35:52.343Z,9.76
2017-04-23T08:36:32.882Z,9.65
2017-04-23T08:37:13.463Z,9.65
2017-04-23T08:37:53.953Z,9.68
2017-04-23T08:38:34.522Z,9.61
2017-04-23T08:39:15.117Z,9.66
2017-04-23T08:39:55.704Z,9.64
2017-04-23T08:40:36.326Z,9.56
2017-04-23T08:41:16.900Z,9.68
2017-04-23T08:41:57.519Z,9.65
2017-04-23T08:42:38.011Z,9.72
2017-04-23T08:43:18.617Z,9.79
2017-04-23T08:43:59.239Z,9.75
2017-04-23T08:44:39.819Z,9.84
2017-04-23T08:45:20.343Z,9.72
2017-04-23T08:46:00.907Z,9.71
2017-04-23T08:46:41.483Z,9.56
2017-04-23T08:47:22.054Z,9.51
2017-04-23T08:48:02.655Z,9.5
2017-04-23T08:48:43.234Z,9.47
2017-04-23T08:49:23.750Z,9.57
2017-04-23T08:50:04.345Z,9.58
2017-04-23T08:50:44.870Z,9.69
2017-04-23T08:51:25.460Z,9.86
2017-04-23T08:52:06.008Z,9.96
2017-04-23T08:52:46.589Z,9.93
2017-04-23T08:53:27.205Z,9.99
2017-04-23T08:54:07.813Z,10.07
2017-04-23T08:54:48.372Z,10.3
2017-04-23T08:55:29.009Z,10.51
2017-04-23T08:56:09.626Z,10.67
2017-04-23T08:56:50.179Z,10.88
2017-04-23T08:57:30.787Z,11.07
2017-04-23T08:58:11.362Z,11.17
2017-04-23T08:58:51.979Z,11.07
2017-04-23T08:59:32.525Z,10.99
2017-04-23T09:00:13.075Z,11.21
2017-04-23T09:00:53.611Z,11.33
2017-04-23T09:01:34.164Z,11.29
2017-04-23T09:02:14.789Z,11.17